sensor_id;sensor_type;location;lat;lon;timestamp;P1;durP1;ratioP1;P2;durP2;ratioP2
13386;SDS011;6763;48.524;9.044;2022-09-01T00:00:51;4.13;;;3.38;;
13386;SDS011;6763;48.524;9.044;2022-09-01T00:03:17;4.70;;;3.40;;
13386;SDS011;6763;48.524;9.044;2022-09-01T00:05:47;4.07;;;3.47;;
13386;SDS011;6763;48.524;9.044;2022-09-01T00:08:21;4.32;;;3.55;;
13386;SDS011;6763;48.524;9.044;2022-09-01T00:10:47;4.43;;;3.90;;
13386;SDS011;6763;48.524;9.044;2022-09-01T00:13:13;5.60;;;3.70;;
13386;SDS011;6763;48.524;9.044;2022-09-01T00:15:38;4.72;;;3.70;;
13386;SDS011;6763;48.524;9.044;2022-09-01T00:18:04;4.68;;;4.18;;
13386;SDS011;6763;48.524;9.044;2022-09-01T00:20:29;4.72;;;4.03;;
13386;SDS011;6763;48.524;9.044;2022-09-01T00:22:55;4.07;;;3.70;;
13386;SDS011;6763;48.524;9.044;2022-09-01T00:25:20;4.25;;;3.85;;
13386;SDS011;6763;48.524;9.044;2022-09-01T00:27:49;4.28;;;3.67;;
13386;SDS011;6763;48.524;9.044;2022-09-01T00:30:15;5.40;;;3.65;;
13386;SDS011;6763;48.524;9.044;2022-09-01T00:32:41;5.45;;;4.25;;
13386;SDS011;6763;48.524;9.044;2022-09-01T00:35:11;4.03;;;3.63;;
13386;SDS011;6763;48.524;9.044;2022-09-01T00:37:40;3.90;;;3.50;;
13386;SDS011;6763;48.524;9.044;2022-09-01T00:40:06;5.55;;;3.40;;
13386;SDS011;6763;48.524;9.044;2022-09-01T00:42:34;3.70;;;3.10;;
13386;SDS011;6763;48.524;9.044;2022-09-01T00:44:59;4.28;;;3.78;;
13386;SDS011;6763;48.524;9.044;2022-09-01T00:47:25;5.35;;;4.00;;
13386;SDS011;6763;48.524;9.044;2022-09-01T00:49:50;4.93;;;3.53;;
13386;SDS011;6763;48.524;9.044;2022-09-01T00:52:21;4.13;;;3.47;;
13386;SDS011;6763;48.524;9.044;2022-09-01T00:54:54;3.38;;;3.03;;
13386;SDS011;6763;48.524;9.044;2022-09-01T00:57:22;5.22;;;3.55;;
13386;SDS011;6763;48.524;9.044;2022-09-01T00:59:50;4.65;;;3.97;;
13386;SDS011;6763;48.524;9.044;2022-09-01T01:02:19;5.82;;;4.07;;
13386;SDS011;6763;48.524;9.044;2022-09-01T01:04:44;4.50;;;3.50;;
13386;SDS011;6763;48.524;9.044;2022-09-01T01:07:10;4.07;;;3.60;;
13386;SDS011;6763;48.524;9.044;2022-09-01T01:09:37;4.40;;;3.60;;
13386;SDS011;6763;48.524;9.044;2022-09-01T01:12:07;6.18;;;3.67;;
13386;SDS011;6763;48.524;9.044;2022-09-01T01:14:37;3.95;;;3.55;;
13386;SDS011;6763;48.524;9.044;2022-09-01T01:17:04;4.78;;;3.53;;
13386;SDS011;6763;48.524;9.044;2022-09-01T01:22:19;4.88;;;3.45;;
13386;SDS011;6763;48.524;9.044;2022-09-01T01:25:10;5.15;;;4.13;;
13386;SDS011;6763;48.524;9.044;2022-09-01T01:27:37;5.47;;;4.10;;
13386;SDS011;6763;48.524;9.044;2022-09-01T01:30:05;4.25;;;3.75;;
13386;SDS011;6763;48.524;9.044;2022-09-01T01:32:36;4.82;;;3.83;;
13386;SDS011;6763;48.524;9.044;2022-09-01T01:35:02;4.97;;;3.80;;
13386;SDS011;6763;48.524;9.044;2022-09-01T01:37:30;4.22;;;3.45;;
13386;SDS011;6763;48.524;9.044;2022-09-01T01:39:59;3.92;;;3.53;;
13386;SDS011;6763;48.524;9.044;2022-09-01T01:42:25;4.90;;;3.72;;
13386;SDS011;6763;48.524;9.044;2022-09-01T01:44:50;5.05;;;3.60;;
13386;SDS011;6763;48.524;9.044;2022-09-01T01:47:16;5.50;;;3.83;;
13386;SDS011;6763;48.524;9.044;2022-09-01T01:49:42;4.13;;;3.45;;
13386;SDS011;6763;48.524;9.044;2022-09-01T01:52:08;5.10;;;3.85;;
13386;SDS011;6763;48.524;9.044;2022-09-01T01:54:37;4.70;;;3.53;;
13386;SDS011;6763;48.524;9.044;2022-09-01T01:57:02;3.50;;;3.20;;
13386;SDS011;6763;48.524;9.044;2022-09-01T01:59:28;4.35;;;3.28;;
13386;SDS011;6763;48.524;9.044;2022-09-01T02:01:54;4.00;;;3.63;;
13386;SDS011;6763;48.524;9.044;2022-09-01T02:04:20;3.45;;;2.90;;
13386;SDS011;6763;48.524;9.044;2022-09-01T02:06:46;3.70;;;3.13;;
13386;SDS011;6763;48.524;9.044;2022-09-01T02:09:14;5.90;;;3.30;;
13386;SDS011;6763;48.524;9.044;2022-09-01T02:11:41;4.28;;;3.88;;
13386;SDS011;6763;48.524;9.044;2022-09-01T02:14:08;3.90;;;3.22;;
13386;SDS011;6763;48.524;9.044;2022-09-01T02:16:34;3.55;;;3.25;;
13386;SDS011;6763;48.524;9.044;2022-09-01T02:19:01;4.20;;;3.17;;
13386;SDS011;6763;48.524;9.044;2022-09-01T02:21:29;4.22;;;3.35;;
13386;SDS011;6763;48.524;9.044;2022-09-01T02:23:56;4.75;;;3.28;;
13386;SDS011;6763;48.524;9.044;2022-09-01T02:26:30;4.53;;;3.47;;
13386;SDS011;6763;48.524;9.044;2022-09-01T02:29:02;4.00;;;3.60;;
13386;SDS011;6763;48.524;9.044;2022-09-01T02:31:31;4.57;;;3.63;;
13386;SDS011;6763;48.524;9.044;2022-09-01T02:33:59;4.65;;;3.45;;
13386;SDS011;6763;48.524;9.044;2022-09-01T02:36:26;3.90;;;3.47;;
13386;SDS011;6763;48.524;9.044;2022-09-01T02:38:52;4.90;;;3.67;;
13386;SDS011;6763;48.524;9.044;2022-09-01T02:41:18;4.68;;;3.35;;
13386;SDS011;6763;48.524;9.044;2022-09-01T02:43:47;4.47;;;3.47;;
13386;SDS011;6763;48.524;9.044;2022-09-01T02:46:14;3.65;;;3.08;;
13386;SDS011;6763;48.524;9.044;2022-09-01T02:48:41;4.75;;;4.05;;
13386;SDS011;6763;48.524;9.044;2022-09-01T02:51:11;7.30;;;3.40;;
13386;SDS011;6763;48.524;9.044;2022-09-01T02:53:39;3.88;;;3.47;;
13386;SDS011;6763;48.524;9.044;2022-09-01T02:56:07;4.65;;;3.60;;
13386;SDS011;6763;48.524;9.044;2022-09-01T02:58:38;4.13;;;3.50;;
13386;SDS011;6763;48.524;9.044;2022-09-01T03:01:10;4.90;;;3.95;;
13386;SDS011;6763;48.524;9.044;2022-09-01T03:03:50;3.90;;;3.58;;
13386;SDS011;6763;48.524;9.044;2022-09-01T03:06:18;4.07;;;3.67;;
13386;SDS011;6763;48.524;9.044;2022-09-01T03:08:47;3.85;;;3.47;;
13386;SDS011;6763;48.524;9.044;2022-09-01T03:11:14;4.30;;;3.85;;
13386;SDS011;6763;48.524;9.044;2022-09-01T03:13:40;4.82;;;3.60;;
13386;SDS011;6763;48.524;9.044;2022-09-01T03:16:07;4.28;;;3.88;;
13386;SDS011;6763;48.524;9.044;2022-09-01T03:18:34;3.85;;;3.30;;
13386;SDS011;6763;48.524;9.044;2022-09-01T03:21:01;3.83;;;3.42;;
13386;SDS011;6763;48.524;9.044;2022-09-01T03:23:27;3.70;;;3.38;;
13386;SDS011;6763;48.524;9.044;2022-09-01T03:25:55;3.65;;;3.30;;
13386;SDS011;6763;48.524;9.044;2022-09-01T03:28:21;5.10;;;3.50;;
13386;SDS011;6763;48.524;9.044;2022-09-01T03:30:49;3.92;;;3.20;;
13386;SDS011;6763;48.524;9.044;2022-09-01T03:33:18;5.13;;;3.30;;
13386;SDS011;6763;48.524;9.044;2022-09-01T03:35:45;7.63;;;4.05;;
13386;SDS011;6763;48.524;9.044;2022-09-01T03:38:11;3.90;;;3.40;;
13386;SDS011;6763;48.524;9.044;2022-09-01T03:40:48;3.70;;;3.15;;
13386;SDS011;6763;48.524;9.044;2022-09-01T03:43:16;4.70;;;3.72;;
13386;SDS011;6763;48.524;9.044;2022-09-01T03:45:43;5.25;;;3.95;;
13386;SDS011;6763;48.524;9.044;2022-09-01T03:48:10;4.60;;;4.05;;
13386;SDS011;6763;48.524;9.044;2022-09-01T03:50:37;4.00;;;3.50;;
13386;SDS011;6763;48.524;9.044;2022-09-01T03:53:10;4.15;;;3.33;;
13386;SDS011;6763;48.524;9.044;2022-09-01T03:55:37;4.68;;;3.53;;
13386;SDS011;6763;48.524;9.044;2022-09-01T03:58:04;8.05;;;4.38;;
13386;SDS011;6763;48.524;9.044;2022-09-01T04:00:33;4.75;;;4.00;;
13386;SDS011;6763;48.524;9.044;2022-09-01T04:03:02;5.57;;;4.13;;
13386;SDS011;6763;48.524;9.044;2022-09-01T04:05:29;5.05;;;3.78;;
13386;SDS011;6763;48.524;9.044;2022-09-01T04:07:58;4.05;;;3.45;;
13386;SDS011;6763;48.524;9.044;2022-09-01T04:10:28;4.07;;;3.67;;
13386;SDS011;6763;48.524;9.044;2022-09-01T04:12:56;4.72;;;4.05;;
13386;SDS011;6763;48.524;9.044;2022-09-01T04:15:23;5.65;;;4.00;;
13386;SDS011;6763;48.524;9.044;2022-09-01T04:17:49;5.90;;;4.30;;
13386;SDS011;6763;48.524;9.044;2022-09-01T04:20:33;5.88;;;4.03;;
13386;SDS011;6763;48.524;9.044;2022-09-01T04:23:11;6.40;;;3.13;;
13386;SDS011;6763;48.524;9.044;2022-09-01T04:26:04;3.65;;;3.00;;
13386;SDS011;6763;48.524;9.044;2022-09-01T04:28:36;3.20;;;2.65;;
13386;SDS011;6763;48.524;9.044;2022-09-01T04:31:04;2.67;;;1.92;;
13386;SDS011;6763;48.524;9.044;2022-09-01T04:33:33;3.70;;;2.63;;
13386;SDS011;6763;48.524;9.044;2022-09-01T04:36:04;2.28;;;1.95;;
13386;SDS011;6763;48.524;9.044;2022-09-01T04:38:31;3.25;;;2.08;;
13386;SDS011;6763;48.524;9.044;2022-09-01T04:41:05;3.15;;;2.53;;
13386;SDS011;6763;48.524;9.044;2022-09-01T04:43:31;2.10;;;1.90;;
13386;SDS011;6763;48.524;9.044;2022-09-01T04:45:58;2.22;;;2.03;;
13386;SDS011;6763;48.524;9.044;2022-09-01T04:48:24;3.15;;;2.80;;
13386;SDS011;6763;48.524;9.044;2022-09-01T04:50:49;3.00;;;2.30;;
13386;SDS011;6763;48.524;9.044;2022-09-01T04:53:16;2.97;;;2.40;;
13386;SDS011;6763;48.524;9.044;2022-09-01T04:55:42;3.40;;;2.50;;
13386;SDS011;6763;48.524;9.044;2022-09-01T04:58:10;2.97;;;2.35;;
13386;SDS011;6763;48.524;9.044;2022-09-01T05:00:41;3.17;;;2.50;;
13386;SDS011;6763;48.524;9.044;2022-09-01T05:03:09;3.83;;;2.20;;
13386;SDS011;6763;48.524;9.044;2022-09-01T05:05:36;2.63;;;2.42;;
13386;SDS011;6763;48.524;9.044;2022-09-01T05:08:08;3.20;;;2.70;;
13386;SDS011;6763;48.524;9.044;2022-09-01T05:10:39;3.53;;;2.17;;
13386;SDS011;6763;48.524;9.044;2022-09-01T05:13:10;2.88;;;2.53;;
13386;SDS011;6763;48.524;9.044;2022-09-01T05:15:38;3.22;;;2.35;;
13386;SDS011;6763;48.524;9.044;2022-09-01T05:18:10;3.00;;;2.67;;
13386;SDS011;6763;48.524;9.044;2022-09-01T05:20:49;3.67;;;2.85;;
13386;SDS011;6763;48.524;9.044;2022-09-01T05:23:17;3.15;;;2.42;;
13386;SDS011;6763;48.524;9.044;2022-09-01T05:25:47;3.28;;;2.97;;
13386;SDS011;6763;48.524;9.044;2022-09-01T05:28:16;3.83;;;2.65;;
13386;SDS011;6763;48.524;9.044;2022-09-01T05:30:43;2.28;;;2.08;;
13386;SDS011;6763;48.524;9.044;2022-09-01T05:33:10;3.47;;;2.50;;
13386;SDS011;6763;48.524;9.044;2022-09-01T05:35:40;2.88;;;2.42;;
13386;SDS011;6763;48.524;9.044;2022-09-01T05:38:09;2.72;;;2.38;;
13386;SDS011;6763;48.524;9.044;2022-09-01T05:40:40;3.90;;;2.65;;
13386;SDS011;6763;48.524;9.044;2022-09-01T05:43:07;4.28;;;2.85;;
13386;SDS011;6763;48.524;9.044;2022-09-01T05:45:37;3.22;;;2.63;;
13386;SDS011;6763;48.524;9.044;2022-09-01T05:48:10;2.75;;;2.33;;
13386;SDS011;6763;48.524;9.044;2022-09-01T05:50:39;2.30;;;1.92;;
13386;SDS011;6763;48.524;9.044;2022-09-01T05:53:07;3.30;;;2.65;;
13386;SDS011;6763;48.524;9.044;2022-09-01T05:55:45;3.42;;;2.45;;
13386;SDS011;6763;48.524;9.044;2022-09-01T05:58:13;2.97;;;2.13;;
13386;SDS011;6763;48.524;9.044;2022-09-01T06:00:44;2.42;;;2.22;;
13386;SDS011;6763;48.524;9.044;2022-09-01T06:03:13;3.47;;;2.65;;
13386;SDS011;6763;48.524;9.044;2022-09-01T06:05:40;2.45;;;2.05;;
13386;SDS011;6763;48.524;9.044;2022-09-01T06:08:06;3.28;;;2.40;;
13386;SDS011;6763;48.524;9.044;2022-09-01T06:10:37;2.47;;;2.25;;
13386;SDS011;6763;48.524;9.044;2022-09-01T06:13:04;3.47;;;2.40;;
13386;SDS011;6763;48.524;9.044;2022-09-01T06:15:33;4.05;;;2.60;;
13386;SDS011;6763;48.524;9.044;2022-09-01T06:18:00;4.82;;;2.75;;
13386;SDS011;6763;48.524;9.044;2022-09-01T06:20:26;3.35;;;2.88;;
13386;SDS011;6763;48.524;9.044;2022-09-01T06:22:51;2.55;;;2.17;;
13386;SDS011;6763;48.524;9.044;2022-09-01T06:25:17;3.92;;;2.83;;
13386;SDS011;6763;48.524;9.044;2022-09-01T06:27:46;3.45;;;2.90;;
13386;SDS011;6763;48.524;9.044;2022-09-01T06:30:13;3.63;;;2.78;;
13386;SDS011;6763;48.524;9.044;2022-09-01T06:32:44;3.30;;;2.50;;
13386;SDS011;6763;48.524;9.044;2022-09-01T06:35:13;2.22;;;2.03;;
13386;SDS011;6763;48.524;9.044;2022-09-01T06:37:40;4.78;;;2.67;;
13386;SDS011;6763;48.524;9.044;2022-09-01T06:40:11;3.55;;;2.92;;
13386;SDS011;6763;48.524;9.044;2022-09-01T06:42:44;3.38;;;2.55;;
13386;SDS011;6763;48.524;9.044;2022-09-01T06:45:15;4.20;;;3.05;;
13386;SDS011;6763;48.524;9.044;2022-09-01T06:47:43;3.38;;;2.45;;
13386;SDS011;6763;48.524;9.044;2022-09-01T06:50:13;3.97;;;3.25;;
13386;SDS011;6763;48.524;9.044;2022-09-01T06:52:43;4.10;;;3.22;;
13386;SDS011;6763;48.524;9.044;2022-09-01T06:55:09;5.63;;;3.70;;
13386;SDS011;6763;48.524;9.044;2022-09-01T06:57:37;4.05;;;2.88;;
13386;SDS011;6763;48.524;9.044;2022-09-01T07:00:07;3.97;;;3.10;;
13386;SDS011;6763;48.524;9.044;2022-09-01T07:02:47;3.65;;;3.08;;
13386;SDS011;6763;48.524;9.044;2022-09-01T07:05:18;5.82;;;3.80;;
13386;SDS011;6763;48.524;9.044;2022-09-01T07:07:49;3.90;;;3.35;;
13386;SDS011;6763;48.524;9.044;2022-09-01T07:10:19;4.30;;;3.30;;
13386;SDS011;6763;48.524;9.044;2022-09-01T07:12:50;3.75;;;3.17;;
13386;SDS011;6763;48.524;9.044;2022-09-01T07:15:17;4.75;;;3.95;;
13386;SDS011;6763;48.524;9.044;2022-09-01T07:17:54;4.45;;;3.10;;
13386;SDS011;6763;48.524;9.044;2022-09-01T07:20:22;4.60;;;3.50;;
13386;SDS011;6763;48.524;9.044;2022-09-01T07:22:50;5.43;;;3.80;;
13386;SDS011;6763;48.524;9.044;2022-09-01T07:25:17;4.75;;;3.13;;
13386;SDS011;6763;48.524;9.044;2022-09-01T07:27:44;4.10;;;3.28;;
13386;SDS011;6763;48.524;9.044;2022-09-01T07:30:13;4.25;;;3.13;;
13386;SDS011;6763;48.524;9.044;2022-09-01T07:32:39;6.35;;;3.70;;
13386;SDS011;6763;48.524;9.044;2022-09-01T07:35:08;4.93;;;3.08;;
13386;SDS011;6763;48.524;9.044;2022-09-01T07:37:34;6.90;;;3.33;;
13386;SDS011;6763;48.524;9.044;2022-09-01T07:40:06;5.38;;;3.65;;
13386;SDS011;6763;48.524;9.044;2022-09-01T07:42:33;3.80;;;3.10;;
13386;SDS011;6763;48.524;9.044;2022-09-01T07:44:59;5.38;;;4.05;;
13386;SDS011;6763;48.524;9.044;2022-09-01T07:47:25;3.60;;;3.10;;
13386;SDS011;6763;48.524;9.044;2022-09-01T07:49:53;3.97;;;3.38;;
13386;SDS011;6763;48.524;9.044;2022-09-01T07:52:19;4.28;;;2.95;;
13386;SDS011;6763;48.524;9.044;2022-09-01T07:54:44;3.88;;;2.92;;
13386;SDS011;6763;48.524;9.044;2022-09-01T07:57:10;2.88;;;2.42;;
13386;SDS011;6763;48.524;9.044;2022-09-01T07:59:35;3.28;;;2.55;;
13386;SDS011;6763;48.524;9.044;2022-09-01T08:02:01;4.47;;;3.13;;
13386;SDS011;6763;48.524;9.044;2022-09-01T08:04:28;3.22;;;2.75;;
13386;SDS011;6763;48.524;9.044;2022-09-01T08:06:53;3.80;;;3.10;;
13386;SDS011;6763;48.524;9.044;2022-09-01T08:09:19;4.30;;;3.50;;
13386;SDS011;6763;48.524;9.044;2022-09-01T08:11:45;4.07;;;2.95;;
13386;SDS011;6763;48.524;9.044;2022-09-01T08:14:10;3.33;;;2.75;;
13386;SDS011;6763;48.524;9.044;2022-09-01T08:16:36;3.60;;;3.10;;
13386;SDS011;6763;48.524;9.044;2022-09-01T08:19:02;3.00;;;2.60;;
13386;SDS011;6763;48.524;9.044;2022-09-01T08:21:27;4.00;;;2.90;;
13386;SDS011;6763;48.524;9.044;2022-09-01T08:23:53;3.58;;;2.97;;
13386;SDS011;6763;48.524;9.044;2022-09-01T08:26:20;3.17;;;2.75;;
13386;SDS011;6763;48.524;9.044;2022-09-01T08:28:49;2.97;;;2.65;;
13386;SDS011;6763;48.524;9.044;2022-09-01T08:31:16;4.47;;;2.70;;
13386;SDS011;6763;48.524;9.044;2022-09-01T08:33:43;2.75;;;2.55;;
13386;SDS011;6763;48.524;9.044;2022-09-01T08:36:11;2.85;;;2.40;;
13386;SDS011;6763;48.524;9.044;2022-09-01T08:38:39;4.18;;;2.75;;
13386;SDS011;6763;48.524;9.044;2022-09-01T08:41:05;2.08;;;1.92;;
13386;SDS011;6763;48.524;9.044;2022-09-01T08:47:10;2.05;;;1.85;;
13386;SDS011;6763;48.524;9.044;2022-09-01T08:49:38;2.10;;;1.83;;
13386;SDS011;6763;48.524;9.044;2022-09-01T08:55:13;2.08;;;1.70;;
13386;SDS011;6763;48.524;9.044;2022-09-01T08:58:03;1.80;;;1.65;;
13386;SDS011;6763;48.524;9.044;2022-09-01T09:00:32;2.10;;;1.90;;
13386;SDS011;6763;48.524;9.044;2022-09-01T09:14:09;2.35;;;1.70;;
13386;SDS011;6763;48.524;9.044;2022-09-01T09:16:43;1.77;;;1.42;;
13386;SDS011;6763;48.524;9.044;2022-09-01T09:19:21;1.77;;;1.40;;
13386;SDS011;6763;48.524;9.044;2022-09-01T09:22:00;2.88;;;1.50;;
13386;SDS011;6763;48.524;9.044;2022-09-01T09:29:42;2.08;;;1.88;;
13386;SDS011;6763;48.524;9.044;2022-09-01T09:32:10;1.95;;;1.60;;
13386;SDS011;6763;48.524;9.044;2022-09-01T09:34:36;2.03;;;1.55;;
13386;SDS011;6763;48.524;9.044;2022-09-01T09:45:25;1.45;;;1.25;;
13386;SDS011;6763;48.524;9.044;2022-09-01T09:47:57;1.30;;;1.20;;
13386;SDS011;6763;48.524;9.044;2022-09-01T09:52:50;1.80;;;1.40;;
13386;SDS011;6763;48.524;9.044;2022-09-01T09:55:20;1.60;;;1.50;;
13386;SDS011;6763;48.524;9.044;2022-09-01T09:57:46;1.35;;;1.20;;
13386;SDS011;6763;48.524;9.044;2022-09-01T10:00:21;1.20;;;1.10;;
13386;SDS011;6763;48.524;9.044;2022-09-01T10:02:56;1.50;;;1.10;;
13386;SDS011;6763;48.524;9.044;2022-09-01T10:11:01;0.88;;;0.88;;
13386;SDS011;6763;48.524;9.044;2022-09-01T10:13:28;1.17;;;1.00;;
13386;SDS011;6763;48.524;9.044;2022-09-01T10:15:56;1.25;;;1.00;;
13386;SDS011;6763;48.524;9.044;2022-09-01T10:18:28;1.10;;;1.00;;
13386;SDS011;6763;48.524;9.044;2022-09-01T10:21:06;1.40;;;1.00;;
13386;SDS011;6763;48.524;9.044;2022-09-01T10:23:36;0.82;;;0.70;;
13386;SDS011;6763;48.524;9.044;2022-09-01T10:26:06;0.80;;;0.80;;
13386;SDS011;6763;48.524;9.044;2022-09-01T10:31:44;0.65;;;0.65;;
13386;SDS011;6763;48.524;9.044;2022-09-01T10:34:10;1.20;;;0.98;;
13386;SDS011;6763;48.524;9.044;2022-09-01T10:36:39;1.10;;;1.00;;
13386;SDS011;6763;48.524;9.044;2022-09-01T10:39:11;0.82;;;0.82;;
13386;SDS011;6763;48.524;9.044;2022-09-01T10:44:19;0.90;;;0.90;;
13386;SDS011;6763;48.524;9.044;2022-09-01T10:46:47;0.80;;;0.80;;
13386;SDS011;6763;48.524;9.044;2022-09-01T10:52:08;0.90;;;0.90;;
13386;SDS011;6763;48.524;9.044;2022-09-01T10:57:20;0.88;;;0.88;;
13386;SDS011;6763;48.524;9.044;2022-09-01T11:08:22;1.10;;;1.00;;
13386;SDS011;6763;48.524;9.044;2022-09-01T11:13:32;0.80;;;0.80;;
13386;SDS011;6763;48.524;9.044;2022-09-01T11:25:13;0.70;;;0.70;;
13386;SDS011;6763;48.524;9.044;2022-09-01T11:28:43;1.27;;;1.17;;
13386;SDS011;6763;48.524;9.044;2022-09-01T11:41:32;0.77;;;0.77;;
13386;SDS011;6763;48.524;9.044;2022-09-01T11:43:59;1.00;;;0.90;;
13386;SDS011;6763;48.524;9.044;2022-09-01T11:46:27;0.80;;;0.80;;
13386;SDS011;6763;48.524;9.044;2022-09-01T11:48:59;0.85;;;0.85;;
13386;SDS011;6763;48.524;9.044;2022-09-01T11:51:37;1.05;;;0.90;;
13386;SDS011;6763;48.524;9.044;2022-09-01T11:54:07;0.77;;;0.77;;
13386;SDS011;6763;48.524;9.044;2022-09-01T11:56:34;0.88;;;0.88;;
13386;SDS011;6763;48.524;9.044;2022-09-01T11:59:00;1.00;;;0.90;;
13386;SDS011;6763;48.524;9.044;2022-09-01T12:03:53;1.02;;;1.00;;
13386;SDS011;6763;48.524;9.044;2022-09-01T12:06:20;1.30;;;1.20;;
13386;SDS011;6763;48.524;9.044;2022-09-01T12:08:59;0.98;;;0.80;;
13386;SDS011;6763;48.524;9.044;2022-09-01T12:11:29;0.80;;;0.80;;
13386;SDS011;6763;48.524;9.044;2022-09-01T12:16:29;0.88;;;0.75;;
13386;SDS011;6763;48.524;9.044;2022-09-01T12:18:58;0.82;;;0.80;;
13386;SDS011;6763;48.524;9.044;2022-09-01T12:21:29;0.90;;;0.90;;
13386;SDS011;6763;48.524;9.044;2022-09-01T12:26:44;0.70;;;0.70;;
13386;SDS011;6763;48.524;9.044;2022-09-01T12:29:12;1.13;;;1.02;;
13386;SDS011;6763;48.524;9.044;2022-09-01T12:31:41;0.80;;;0.80;;
13386;SDS011;6763;48.524;9.044;2022-09-01T12:39:41;1.13;;;1.00;;
13386;SDS011;6763;48.524;9.044;2022-09-01T12:44:46;1.25;;;0.93;;
13386;SDS011;6763;48.524;9.044;2022-09-01T12:49:57;0.75;;;0.70;;
13386;SDS011;6763;48.524;9.044;2022-09-01T12:52:24;0.90;;;0.80;;
13386;SDS011;6763;48.524;9.044;2022-09-01T12:55:37;0.88;;;0.88;;
13386;SDS011;6763;48.524;9.044;2022-09-01T12:57:47;0.73;;;0.70;;
13386;SDS011;6763;48.524;9.044;2022-09-01T13:00:19;0.70;;;0.70;;
13386;SDS011;6763;48.524;9.044;2022-09-01T13:02:48;0.73;;;0.73;;
13386;SDS011;6763;48.524;9.044;2022-09-01T13:05:30;1.38;;;0.82;;
13386;SDS011;6763;48.524;9.044;2022-09-01T13:08:02;1.00;;;0.80;;
13386;SDS011;6763;48.524;9.044;2022-09-01T13:10:37;0.88;;;0.80;;
13386;SDS011;6763;48.524;9.044;2022-09-01T13:13:08;0.85;;;0.80;;
13386;SDS011;6763;48.524;9.044;2022-09-01T13:15:35;1.20;;;1.00;;
13386;SDS011;6763;48.524;9.044;2022-09-01T13:18:02;1.15;;;1.05;;
13386;SDS011;6763;48.524;9.044;2022-09-01T13:20:27;1.50;;;0.90;;
13386;SDS011;6763;48.524;9.044;2022-09-01T13:22:53;0.70;;;0.70;;
13386;SDS011;6763;48.524;9.044;2022-09-01T13:25:19;0.68;;;0.68;;
13386;SDS011;6763;48.524;9.044;2022-09-01T13:27:46;0.82;;;0.70;;
13386;SDS011;6763;48.524;9.044;2022-09-01T13:30:13;1.05;;;0.95;;
13386;SDS011;6763;48.524;9.044;2022-09-01T13:32:41;0.77;;;0.77;;
13386;SDS011;6763;48.524;9.044;2022-09-01T13:35:07;1.00;;;0.85;;
13386;SDS011;6763;48.524;9.044;2022-09-01T13:37:33;0.82;;;0.82;;
13386;SDS011;6763;48.524;9.044;2022-09-01T13:39:59;0.75;;;0.75;;
13386;SDS011;6763;48.524;9.044;2022-09-01T13:42:25;0.80;;;0.80;;
13386;SDS011;6763;48.524;9.044;2022-09-01T13:44:50;0.93;;;0.90;;
13386;SDS011;6763;48.524;9.044;2022-09-01T13:47:16;0.98;;;0.93;;
13386;SDS011;6763;48.524;9.044;2022-09-01T13:49:41;1.27;;;0.90;;
13386;SDS011;6763;48.524;9.044;2022-09-01T13:52:06;0.80;;;0.80;;
13386;SDS011;6763;48.524;9.044;2022-09-01T13:54:32;0.80;;;0.80;;
13386;SDS011;6763;48.524;9.044;2022-09-01T13:56:57;1.02;;;0.93;;
13386;SDS011;6763;48.524;9.044;2022-09-01T13:59:23;1.63;;;0.85;;
13386;SDS011;6763;48.524;9.044;2022-09-01T14:01:48;0.90;;;0.90;;
13386;SDS011;6763;48.524;9.044;2022-09-01T14:04:14;0.95;;;0.82;;
13386;SDS011;6763;48.524;9.044;2022-09-01T14:06:39;0.88;;;0.88;;
13386;SDS011;6763;48.524;9.044;2022-09-01T14:09:08;0.93;;;0.88;;
13386;SDS011;6763;48.524;9.044;2022-09-01T14:11:37;0.80;;;0.80;;
13386;SDS011;6763;48.524;9.044;2022-09-01T14:14:03;0.93;;;0.82;;
13386;SDS011;6763;48.524;9.044;2022-09-01T14:16:28;0.90;;;0.90;;
13386;SDS011;6763;48.524;9.044;2022-09-01T14:18:54;0.93;;;0.90;;
13386;SDS011;6763;48.524;9.044;2022-09-01T14:21:19;0.85;;;0.80;;
13386;SDS011;6763;48.524;9.044;2022-09-01T14:23:45;1.20;;;1.10;;
13386;SDS011;6763;48.524;9.044;2022-09-01T14:26:12;1.00;;;1.00;;
13386;SDS011;6763;48.524;9.044;2022-09-01T14:28:40;1.30;;;0.90;;
13386;SDS011;6763;48.524;9.044;2022-09-01T14:31:10;1.10;;;0.80;;
13386;SDS011;6763;48.524;9.044;2022-09-01T14:33:38;0.80;;;0.80;;
13386;SDS011;6763;48.524;9.044;2022-09-01T14:36:04;0.90;;;0.90;;
13386;SDS011;6763;48.524;9.044;2022-09-01T14:38:31;0.98;;;0.98;;
13386;SDS011;6763;48.524;9.044;2022-09-01T14:40:57;0.70;;;0.70;;
13386;SDS011;6763;48.524;9.044;2022-09-01T14:43:22;0.80;;;0.80;;
13386;SDS011;6763;48.524;9.044;2022-09-01T14:45:49;0.90;;;0.90;;
13386;SDS011;6763;48.524;9.044;2022-09-01T14:48:15;0.70;;;0.70;;
13386;SDS011;6763;48.524;9.044;2022-09-01T14:50:43;1.02;;;0.93;;
13386;SDS011;6763;48.524;9.044;2022-09-01T14:53:10;1.10;;;1.00;;
13386;SDS011;6763;48.524;9.044;2022-09-01T14:55:36;0.90;;;0.90;;
13386;SDS011;6763;48.524;9.044;2022-09-01T14:58:02;1.38;;;0.90;;
13386;SDS011;6763;48.524;9.044;2022-09-01T15:00:28;0.90;;;0.90;;
13386;SDS011;6763;48.524;9.044;2022-09-01T15:02:56;0.65;;;0.65;;
13386;SDS011;6763;48.524;9.044;2022-09-01T15:05:22;0.95;;;0.95;;
13386;SDS011;6763;48.524;9.044;2022-09-01T15:07:48;0.95;;;0.90;;
13386;SDS011;6763;48.524;9.044;2022-09-01T15:10:15;1.10;;;1.00;;
13386;SDS011;6763;48.524;9.044;2022-09-01T15:12:42;0.70;;;0.65;;
13386;SDS011;6763;48.524;9.044;2022-09-01T15:15:07;1.15;;;1.05;;
13386;SDS011;6763;48.524;9.044;2022-09-01T15:17:33;0.93;;;0.93;;
13386;SDS011;6763;48.524;9.044;2022-09-01T15:19:59;0.80;;;0.80;;
13386;SDS011;6763;48.524;9.044;2022-09-01T15:22:46;0.80;;;0.80;;
13386;SDS011;6763;48.524;9.044;2022-09-01T15:25:13;1.02;;;0.93;;
13386;SDS011;6763;48.524;9.044;2022-09-01T15:27:39;1.10;;;1.02;;
13386;SDS011;6763;48.524;9.044;2022-09-01T15:30:04;0.93;;;0.90;;
13386;SDS011;6763;48.524;9.044;2022-09-01T15:32:37;1.02;;;0.93;;
13386;SDS011;6763;48.524;9.044;2022-09-01T15:35:03;0.90;;;0.90;;
13386;SDS011;6763;48.524;9.044;2022-09-01T15:37:29;1.10;;;1.00;;
13386;SDS011;6763;48.524;9.044;2022-09-01T15:39:55;0.93;;;0.77;;
13386;SDS011;6763;48.524;9.044;2022-09-01T15:42:20;0.80;;;0.80;;
13386;SDS011;6763;48.524;9.044;2022-09-01T15:44:45;0.80;;;0.80;;
13386;SDS011;6763;48.524;9.044;2022-09-01T15:47:11;0.95;;;0.88;;
13386;SDS011;6763;48.524;9.044;2022-09-01T15:49:36;0.90;;;0.90;;
13386;SDS011;6763;48.524;9.044;2022-09-01T15:52:02;0.90;;;0.80;;
13386;SDS011;6763;48.524;9.044;2022-09-01T15:54:28;0.80;;;0.80;;
13386;SDS011;6763;48.524;9.044;2022-09-01T15:56:53;0.90;;;0.90;;
13386;SDS011;6763;48.524;9.044;2022-09-01T15:59:18;1.15;;;0.73;;
13386;SDS011;6763;48.524;9.044;2022-09-01T16:01:44;1.15;;;0.85;;
13386;SDS011;6763;48.524;9.044;2022-09-01T16:04:11;0.85;;;0.85;;
13386;SDS011;6763;48.524;9.044;2022-09-01T16:06:41;0.70;;;0.70;;
13386;SDS011;6763;48.524;9.044;2022-09-01T16:09:08;0.90;;;0.90;;
13386;SDS011;6763;48.524;9.044;2022-09-01T16:11:34;1.10;;;1.00;;
13386;SDS011;6763;48.524;9.044;2022-09-01T16:14:01;0.80;;;0.80;;
13386;SDS011;6763;48.524;9.044;2022-09-01T16:16:30;0.98;;;0.98;;
13386;SDS011;6763;48.524;9.044;2022-09-01T16:24:27;1.42;;;1.10;;
13386;SDS011;6763;48.524;9.044;2022-09-01T16:26:53;0.82;;;0.80;;
13386;SDS011;6763;48.524;9.044;2022-09-01T16:29:43;1.20;;;1.10;;
13386;SDS011;6763;48.524;9.044;2022-09-01T16:32:10;1.02;;;0.93;;
13386;SDS011;6763;48.524;9.044;2022-09-01T16:34:35;1.38;;;1.27;;
13386;SDS011;6763;48.524;9.044;2022-09-01T16:37:22;0.98;;;0.80;;
13386;SDS011;6763;48.524;9.044;2022-09-01T16:39:53;0.85;;;0.85;;
13386;SDS011;6763;48.524;9.044;2022-09-01T17:09:38;1.13;;;1.02;;
13386;SDS011;6763;48.524;9.044;2022-09-01T17:20:28;0.70;;;0.70;;
13386;SDS011;6763;48.524;9.044;2022-09-01T17:22:59;1.30;;;1.20;;
13386;SDS011;6763;48.524;9.044;2022-09-01T17:25:34;1.23;;;1.13;;
13386;SDS011;6763;48.524;9.044;2022-09-01T17:28:31;1.08;;;1.00;;
13386;SDS011;6763;48.524;9.044;2022-09-01T17:34:16;1.02;;;0.93;;
13386;SDS011;6763;48.524;9.044;2022-09-01T17:36:38;0.90;;;0.90;;